Terminal Aerodrome Forecast
Issued by NWS Blacksburg, VA

Current Version | Previous Version | Graphics & Text | Print | Product List | Glossary On
Versions: 1 2 3 4 5 6 7 8 9 10 11 12 13 14 15 16 17 18
000
FTUS41 KRNK 271948 AAA
TAFBLF
TAF AMD
KBLF 271948Z 2720/2818 19010G20KT P6SM VCTS BKN050CB
     FM280000 24006KT P6SM SCT040
     FM280400 26003KT P6SM BKN020
     FM281100 17006KT P6SM FEW250=

USA.gov is the U.S. government's official web portal to all federal, state and local government web resources and services.